Terminal Aerodrome Forecast
Issued by NWS

Home | Current Version | Previous Version | Text Only | Print | Product List | Glossary On
Versions: 1 2 3 4 5 6 7 8 9 10 11 12
000
FTAK31 PAJN 282300
TAFAPG
TAF
PAPG 282326Z 0100/0124 04004KT P6SM BKN110
     FM010800 VRB02KT P6SM BKN022 BKN080
     FM011100 00000KT 6SM -RA BR BKN018 OVC040
     FM011400 00000KT 4SM -RA BR BKN010 OVC020
     FM011800 VRB04KT P6SM BKN010
     FM012100 04005KT P6SM FEW015
      AMD LTD TO CLD VIS AND WIND 0106/0115=

USA.gov is the U.S. government's official web portal to all federal, state and local government web resources and services.